sensor_id;sensor_type;location;lat;lon;timestamp;P1;durP1;ratioP1;P2;durP2;ratioP2
58446;SDS011;44240;51.840;7.258;2024-03-22T00:01:47;36.28;;;18.13;;
58446;SDS011;44240;51.840;7.258;2024-03-22T00:04:13;33.40;;;16.83;;
58446;SDS011;44240;51.840;7.258;2024-03-22T00:06:43;37.33;;;17.70;;
58446;SDS011;44240;51.840;7.258;2024-03-22T00:09:11;32.47;;;17.20;;
58446;SDS011;44240;51.840;7.258;2024-03-22T00:11:38;36.78;;;18.60;;
58446;SDS011;44240;51.840;7.258;2024-03-22T00:14:05;37.95;;;18.45;;
58446;SDS011;44240;51.840;7.258;2024-03-22T00:16:31;30.35;;;16.58;;
58446;SDS011;44240;51.840;7.258;2024-03-22T00:18:57;34.50;;;18.58;;
58446;SDS011;44240;51.840;7.258;2024-03-22T00:21:23;38.58;;;18.75;;
58446;SDS011;44240;51.840;7.258;2024-03-22T00:23:49;33.72;;;16.23;;
58446;SDS011;44240;51.840;7.258;2024-03-22T00:26:15;35.10;;;19.40;;
58446;SDS011;44240;51.840;7.258;2024-03-22T00:28:41;38.63;;;18.40;;
58446;SDS011;44240;51.840;7.258;2024-03-22T00:31:08;37.38;;;17.98;;
58446;SDS011;44240;51.840;7.258;2024-03-22T00:33:34;39.70;;;18.45;;
58446;SDS011;44240;51.840;7.258;2024-03-22T00:36:00;33.80;;;17.15;;
58446;SDS011;44240;51.840;7.258;2024-03-22T00:38:26;35.38;;;17.90;;
58446;SDS011;44240;51.840;7.258;2024-03-22T00:40:52;33.72;;;18.23;;
58446;SDS011;44240;51.840;7.258;2024-03-22T00:43:18;30.08;;;15.98;;
58446;SDS011;44240;51.840;7.258;2024-03-22T00:45:45;31.27;;;15.98;;
58446;SDS011;44240;51.840;7.258;2024-03-22T00:48:11;36.97;;;18.92;;
58446;SDS011;44240;51.840;7.258;2024-03-22T00:50:37;33.65;;;16.80;;
58446;SDS011;44240;51.840;7.258;2024-03-22T00:53:03;35.80;;;16.58;;
58446;SDS011;44240;51.840;7.258;2024-03-22T00:55:30;33.78;;;17.40;;
58446;SDS011;44240;51.840;7.258;2024-03-22T00:57:56;30.17;;;16.48;;
58446;SDS011;44240;51.840;7.258;2024-03-22T01:00:22;35.20;;;17.05;;
58446;SDS011;44240;51.840;7.258;2024-03-22T01:02:49;34.95;;;18.27;;
58446;SDS011;44240;51.840;7.258;2024-03-22T01:05:16;34.85;;;15.45;;
58446;SDS011;44240;51.840;7.258;2024-03-22T01:07:42;30.95;;;15.77;;
58446;SDS011;44240;51.840;7.258;2024-03-22T01:10:08;37.95;;;17.42;;
58446;SDS011;44240;51.840;7.258;2024-03-22T01:12:35;36.35;;;16.65;;
58446;SDS011;44240;51.840;7.258;2024-03-22T01:15:01;31.20;;;15.57;;
58446;SDS011;44240;51.840;7.258;2024-03-22T01:17:28;32.55;;;16.30;;
58446;SDS011;44240;51.840;7.258;2024-03-22T01:19:54;35.70;;;17.13;;
58446;SDS011;44240;51.840;7.258;2024-03-22T01:22:20;35.03;;;17.23;;
58446;SDS011;44240;51.840;7.258;2024-03-22T01:24:46;34.35;;;16.52;;
58446;SDS011;44240;51.840;7.258;2024-03-22T01:27:12;35.88;;;16.98;;
58446;SDS011;44240;51.840;7.258;2024-03-22T01:29:38;33.15;;;15.93;;
58446;SDS011;44240;51.840;7.258;2024-03-22T01:32:04;35.15;;;16.33;;
58446;SDS011;44240;51.840;7.258;2024-03-22T01:34:30;33.42;;;16.17;;
58446;SDS011;44240;51.840;7.258;2024-03-22T01:36:56;35.22;;;17.95;;
58446;SDS011;44240;51.840;7.258;2024-03-22T01:39:21;33.63;;;17.60;;
58446;SDS011;44240;51.840;7.258;2024-03-22T01:41:48;32.30;;;16.65;;
58446;SDS011;44240;51.840;7.258;2024-03-22T01:44:14;35.55;;;16.83;;
58446;SDS011;44240;51.840;7.258;2024-03-22T01:46:41;33.30;;;17.23;;
58446;SDS011;44240;51.840;7.258;2024-03-22T01:49:12;32.42;;;15.40;;
58446;SDS011;44240;51.840;7.258;2024-03-22T01:51:42;35.83;;;17.65;;
58446;SDS011;44240;51.840;7.258;2024-03-22T01:54:09;29.13;;;15.82;;
58446;SDS011;44240;51.840;7.258;2024-03-22T01:56:36;32.38;;;16.75;;
58446;SDS011;44240;51.840;7.258;2024-03-22T01:59:03;34.50;;;16.27;;
58446;SDS011;44240;51.840;7.258;2024-03-22T02:01:30;34.47;;;18.40;;
58446;SDS011;44240;51.840;7.258;2024-03-22T02:03:56;34.55;;;15.85;;
58446;SDS011;44240;51.840;7.258;2024-03-22T02:06:22;35.17;;;16.73;;
58446;SDS011;44240;51.840;7.258;2024-03-22T02:08:48;34.03;;;17.30;;
58446;SDS011;44240;51.840;7.258;2024-03-22T02:11:14;32.75;;;16.77;;
58446;SDS011;44240;51.840;7.258;2024-03-22T02:13:40;35.35;;;18.15;;
58446;SDS011;44240;51.840;7.258;2024-03-22T02:16:05;36.15;;;16.50;;
58446;SDS011;44240;51.840;7.258;2024-03-22T02:18:31;33.83;;;15.43;;
58446;SDS011;44240;51.840;7.258;2024-03-22T02:20:57;37.45;;;16.45;;
58446;SDS011;44240;51.840;7.258;2024-03-22T02:26:00;35.88;;;17.50;;
58446;SDS011;44240;51.840;7.258;2024-03-22T02:28:26;35.95;;;16.13;;
58446;SDS011;44240;51.840;7.258;2024-03-22T02:30:52;37.78;;;18.33;;
58446;SDS011;44240;51.840;7.258;2024-03-22T02:33:18;38.15;;;17.05;;
58446;SDS011;44240;51.840;7.258;2024-03-22T02:35:46;33.58;;;17.17;;
58446;SDS011;44240;51.840;7.258;2024-03-22T02:38:12;32.78;;;16.27;;
58446;SDS011;44240;51.840;7.258;2024-03-22T02:40:38;28.33;;;14.70;;
58446;SDS011;44240;51.840;7.258;2024-03-22T02:43:04;29.67;;;15.70;;
58446;SDS011;44240;51.840;7.258;2024-03-22T02:45:30;35.92;;;16.67;;
58446;SDS011;44240;51.840;7.258;2024-03-22T02:47:56;36.75;;;17.85;;
58446;SDS011;44240;51.840;7.258;2024-03-22T02:50:22;38.40;;;16.60;;
58446;SDS011;44240;51.840;7.258;2024-03-22T02:52:48;35.67;;;17.58;;
58446;SDS011;44240;51.840;7.258;2024-03-22T02:55:15;31.83;;;16.70;;
58446;SDS011;44240;51.840;7.258;2024-03-22T02:57:41;37.35;;;16.58;;
58446;SDS011;44240;51.840;7.258;2024-03-22T03:00:08;33.30;;;15.82;;
58446;SDS011;44240;51.840;7.258;2024-03-22T03:02:34;32.17;;;16.15;;
58446;SDS011;44240;51.840;7.258;2024-03-22T03:05:00;31.60;;;16.10;;
58446;SDS011;44240;51.840;7.258;2024-03-22T03:07:26;34.10;;;17.30;;
58446;SDS011;44240;51.840;7.258;2024-03-22T03:09:53;35.80;;;17.10;;
58446;SDS011;44240;51.840;7.258;2024-03-22T03:12:19;39.05;;;17.00;;
58446;SDS011;44240;51.840;7.258;2024-03-22T03:14:45;32.45;;;16.38;;
58446;SDS011;44240;51.840;7.258;2024-03-22T03:17:11;31.08;;;17.58;;
58446;SDS011;44240;51.840;7.258;2024-03-22T03:19:37;34.45;;;17.05;;
58446;SDS011;44240;51.840;7.258;2024-03-22T03:22:02;34.50;;;17.00;;
58446;SDS011;44240;51.840;7.258;2024-03-22T03:24:29;34.28;;;16.00;;
58446;SDS011;44240;51.840;7.258;2024-03-22T03:26:54;34.03;;;17.45;;
58446;SDS011;44240;51.840;7.258;2024-03-22T03:29:20;31.85;;;16.00;;
58446;SDS011;44240;51.840;7.258;2024-03-22T03:31:46;33.38;;;16.90;;
58446;SDS011;44240;51.840;7.258;2024-03-22T03:34:12;34.17;;;15.73;;
58446;SDS011;44240;51.840;7.258;2024-03-22T03:36:38;31.88;;;15.20;;
58446;SDS011;44240;51.840;7.258;2024-03-22T03:39:04;33.10;;;15.70;;
58446;SDS011;44240;51.840;7.258;2024-03-22T03:41:29;34.20;;;15.63;;
58446;SDS011;44240;51.840;7.258;2024-03-22T03:43:55;31.55;;;16.25;;
58446;SDS011;44240;51.840;7.258;2024-03-22T03:46:21;33.85;;;16.42;;
58446;SDS011;44240;51.840;7.258;2024-03-22T03:48:47;33.60;;;16.27;;
58446;SDS011;44240;51.840;7.258;2024-03-22T03:51:13;33.75;;;16.02;;
58446;SDS011;44240;51.840;7.258;2024-03-22T03:53:40;35.83;;;17.45;;
58446;SDS011;44240;51.840;7.258;2024-03-22T03:56:05;36.95;;;17.05;;
58446;SDS011;44240;51.840;7.258;2024-03-22T03:58:31;32.58;;;16.48;;
58446;SDS011;44240;51.840;7.258;2024-03-22T04:00:57;35.80;;;18.13;;
58446;SDS011;44240;51.840;7.258;2024-03-22T04:03:23;36.80;;;17.33;;
58446;SDS011;44240;51.840;7.258;2024-03-22T04:05:56;39.70;;;18.20;;
58446;SDS011;44240;51.840;7.258;2024-03-22T04:08:22;36.72;;;17.70;;
58446;SDS011;44240;51.840;7.258;2024-03-22T04:10:52;30.65;;;15.07;;
58446;SDS011;44240;51.840;7.258;2024-03-22T04:13:21;33.22;;;16.58;;
58446;SDS011;44240;51.840;7.258;2024-03-22T04:15:47;33.15;;;17.80;;
58446;SDS011;44240;51.840;7.258;2024-03-22T04:18:13;33.38;;;18.10;;
58446;SDS011;44240;51.840;7.258;2024-03-22T04:20:38;35.42;;;17.30;;
58446;SDS011;44240;51.840;7.258;2024-03-22T04:23:04;35.05;;;16.98;;
58446;SDS011;44240;51.840;7.258;2024-03-22T04:25:30;37.08;;;18.08;;
58446;SDS011;44240;51.840;7.258;2024-03-22T04:27:56;31.98;;;16.67;;
58446;SDS011;44240;51.840;7.258;2024-03-22T04:30:22;34.03;;;17.90;;
58446;SDS011;44240;51.840;7.258;2024-03-22T04:32:48;35.42;;;16.65;;
58446;SDS011;44240;51.840;7.258;2024-03-22T04:35:13;37.70;;;17.88;;
58446;SDS011;44240;51.840;7.258;2024-03-22T04:37:39;37.05;;;17.95;;
58446;SDS011;44240;51.840;7.258;2024-03-22T04:40:05;38.17;;;18.70;;
58446;SDS011;44240;51.840;7.258;2024-03-22T04:42:32;33.85;;;18.00;;
58446;SDS011;44240;51.840;7.258;2024-03-22T04:44:57;34.53;;;17.05;;
58446;SDS011;44240;51.840;7.258;2024-03-22T04:47:23;35.67;;;17.92;;
58446;SDS011;44240;51.840;7.258;2024-03-22T04:49:49;33.20;;;16.55;;
58446;SDS011;44240;51.840;7.258;2024-03-22T04:52:15;35.63;;;16.67;;
58446;SDS011;44240;51.840;7.258;2024-03-22T04:54:41;35.65;;;17.00;;
58446;SDS011;44240;51.840;7.258;2024-03-22T04:57:07;32.00;;;16.55;;
58446;SDS011;44240;51.840;7.258;2024-03-22T04:59:32;34.80;;;16.45;;
58446;SDS011;44240;51.840;7.258;2024-03-22T05:01:58;35.40;;;17.08;;
58446;SDS011;44240;51.840;7.258;2024-03-22T05:04:24;32.72;;;16.65;;
58446;SDS011;44240;51.840;7.258;2024-03-22T05:06:50;28.00;;;13.77;;
58446;SDS011;44240;51.840;7.258;2024-03-22T05:09:16;38.30;;;19.33;;
58446;SDS011;44240;51.840;7.258;2024-03-22T05:11:42;34.85;;;16.13;;
58446;SDS011;44240;51.840;7.258;2024-03-22T05:14:07;33.17;;;17.17;;
58446;SDS011;44240;51.840;7.258;2024-03-22T05:16:33;36.15;;;17.08;;
58446;SDS011;44240;51.840;7.258;2024-03-22T05:18:59;31.65;;;14.90;;
58446;SDS011;44240;51.840;7.258;2024-03-22T05:21:25;35.90;;;16.88;;
58446;SDS011;44240;51.840;7.258;2024-03-22T05:23:51;32.72;;;16.75;;
58446;SDS011;44240;51.840;7.258;2024-03-22T05:26:17;34.17;;;17.02;;
58446;SDS011;44240;51.840;7.258;2024-03-22T05:28:46;32.92;;;15.23;;
58446;SDS011;44240;51.840;7.258;2024-03-22T05:31:11;34.00;;;18.33;;
58446;SDS011;44240;51.840;7.258;2024-03-22T05:33:37;36.22;;;17.23;;
58446;SDS011;44240;51.840;7.258;2024-03-22T05:36:03;33.47;;;18.13;;
58446;SDS011;44240;51.840;7.258;2024-03-22T05:38:29;31.67;;;16.70;;
58446;SDS011;44240;51.840;7.258;2024-03-22T05:40:55;32.47;;;17.02;;
58446;SDS011;44240;51.840;7.258;2024-03-22T05:43:21;33.92;;;16.38;;
58446;SDS011;44240;51.840;7.258;2024-03-22T05:45:47;31.92;;;15.18;;
58446;SDS011;44240;51.840;7.258;2024-03-22T05:48:13;31.73;;;14.80;;
58446;SDS011;44240;51.840;7.258;2024-03-22T05:50:40;34.90;;;16.92;;
58446;SDS011;44240;51.840;7.258;2024-03-22T05:53:06;32.67;;;15.50;;
58446;SDS011;44240;51.840;7.258;2024-03-22T05:55:32;28.15;;;14.82;;
58446;SDS011;44240;51.840;7.258;2024-03-22T05:57:57;34.80;;;17.42;;
58446;SDS011;44240;51.840;7.258;2024-03-22T06:00:23;31.85;;;16.85;;
58446;SDS011;44240;51.840;7.258;2024-03-22T06:02:50;30.15;;;15.80;;
58446;SDS011;44240;51.840;7.258;2024-03-22T06:05:16;31.10;;;16.15;;
58446;SDS011;44240;51.840;7.258;2024-03-22T06:07:42;30.63;;;15.90;;
58446;SDS011;44240;51.840;7.258;2024-03-22T06:10:10;29.88;;;13.75;;
58446;SDS011;44240;51.840;7.258;2024-03-22T06:12:36;34.17;;;15.85;;
58446;SDS011;44240;51.840;7.258;2024-03-22T06:15:02;27.83;;;14.38;;
58446;SDS011;44240;51.840;7.258;2024-03-22T06:17:34;26.58;;;14.85;;
58446;SDS011;44240;51.840;7.258;2024-03-22T06:20:00;31.15;;;15.20;;
58446;SDS011;44240;51.840;7.258;2024-03-22T06:22:26;33.15;;;16.70;;
58446;SDS011;44240;51.840;7.258;2024-03-22T06:24:52;31.83;;;16.55;;
58446;SDS011;44240;51.840;7.258;2024-03-22T06:27:19;26.55;;;14.55;;
58446;SDS011;44240;51.840;7.258;2024-03-22T06:29:44;26.70;;;13.63;;
58446;SDS011;44240;51.840;7.258;2024-03-22T06:32:11;26.38;;;15.00;;
58446;SDS011;44240;51.840;7.258;2024-03-22T06:34:37;26.23;;;14.95;;
58446;SDS011;44240;51.840;7.258;2024-03-22T06:37:04;28.33;;;14.65;;
58446;SDS011;44240;51.840;7.258;2024-03-22T06:39:29;22.05;;;11.55;;
58446;SDS011;44240;51.840;7.258;2024-03-22T06:41:55;28.00;;;14.43;;
58446;SDS011;44240;51.840;7.258;2024-03-22T06:44:21;26.60;;;13.85;;
58446;SDS011;44240;51.840;7.258;2024-03-22T06:46:47;27.05;;;14.60;;
58446;SDS011;44240;51.840;7.258;2024-03-22T06:49:13;28.73;;;16.45;;
58446;SDS011;44240;51.840;7.258;2024-03-22T06:51:39;24.58;;;12.18;;
58446;SDS011;44240;51.840;7.258;2024-03-22T06:54:04;27.23;;;14.93;;
58446;SDS011;44240;51.840;7.258;2024-03-22T06:56:30;22.33;;;13.38;;
58446;SDS011;44240;51.840;7.258;2024-03-22T06:58:56;23.88;;;12.75;;
58446;SDS011;44240;51.840;7.258;2024-03-22T07:01:22;26.40;;;14.77;;
58446;SDS011;44240;51.840;7.258;2024-03-22T07:03:48;25.48;;;15.27;;
58446;SDS011;44240;51.840;7.258;2024-03-22T07:06:14;23.52;;;14.07;;
58446;SDS011;44240;51.840;7.258;2024-03-22T07:08:40;27.67;;;14.07;;
58446;SDS011;44240;51.840;7.258;2024-03-22T07:11:06;25.77;;;14.50;;
58446;SDS011;44240;51.840;7.258;2024-03-22T07:13:33;24.20;;;12.48;;
58446;SDS011;44240;51.840;7.258;2024-03-22T07:16:00;25.00;;;13.43;;
58446;SDS011;44240;51.840;7.258;2024-03-22T07:18:26;21.55;;;13.13;;
58446;SDS011;44240;51.840;7.258;2024-03-22T07:20:51;27.38;;;15.18;;
58446;SDS011;44240;51.840;7.258;2024-03-22T07:23:17;24.25;;;12.00;;
58446;SDS011;44240;51.840;7.258;2024-03-22T07:25:43;20.05;;;11.27;;
58446;SDS011;44240;51.840;7.258;2024-03-22T07:28:11;21.95;;;11.43;;
58446;SDS011;44240;51.840;7.258;2024-03-22T07:30:37;26.50;;;13.27;;
58446;SDS011;44240;51.840;7.258;2024-03-22T07:33:03;23.33;;;12.70;;
58446;SDS011;44240;51.840;7.258;2024-03-22T07:35:30;23.77;;;13.63;;
58446;SDS011;44240;51.840;7.258;2024-03-22T07:37:56;23.80;;;12.88;;
58446;SDS011;44240;51.840;7.258;2024-03-22T07:40:22;22.48;;;13.90;;
58446;SDS011;44240;51.840;7.258;2024-03-22T07:42:48;22.23;;;11.07;;
58446;SDS011;44240;51.840;7.258;2024-03-22T07:45:13;25.10;;;13.77;;
58446;SDS011;44240;51.840;7.258;2024-03-22T07:47:39;22.70;;;12.45;;
58446;SDS011;44240;51.840;7.258;2024-03-22T07:50:07;22.90;;;13.02;;
58446;SDS011;44240;51.840;7.258;2024-03-22T07:52:34;24.77;;;14.15;;
58446;SDS011;44240;51.840;7.258;2024-03-22T07:54:59;21.83;;;11.88;;
58446;SDS011;44240;51.840;7.258;2024-03-22T07:57:28;20.35;;;12.25;;
58446;SDS011;44240;51.840;7.258;2024-03-22T07:59:56;19.63;;;11.85;;
58446;SDS011;44240;51.840;7.258;2024-03-22T08:02:23;22.92;;;12.63;;
58446;SDS011;44240;51.840;7.258;2024-03-22T08:04:49;23.63;;;13.20;;
58446;SDS011;44240;51.840;7.258;2024-03-22T08:07:15;25.83;;;12.52;;
58446;SDS011;44240;51.840;7.258;2024-03-22T08:09:41;23.23;;;13.70;;
58446;SDS011;44240;51.840;7.258;2024-03-22T08:12:07;20.02;;;11.43;;
58446;SDS011;44240;51.840;7.258;2024-03-22T08:14:33;20.17;;;12.30;;
58446;SDS011;44240;51.840;7.258;2024-03-22T08:16:59;21.52;;;12.48;;
58446;SDS011;44240;51.840;7.258;2024-03-22T08:19:24;21.50;;;11.30;;
58446;SDS011;44240;51.840;7.258;2024-03-22T08:21:50;21.67;;;12.15;;
58446;SDS011;44240;51.840;7.258;2024-03-22T08:24:17;21.85;;;13.00;;
58446;SDS011;44240;51.840;7.258;2024-03-22T08:26:43;18.95;;;11.02;;
58446;SDS011;44240;51.840;7.258;2024-03-22T08:29:12;17.13;;;9.60;;
58446;SDS011;44240;51.840;7.258;2024-03-22T08:31:40;24.00;;;12.52;;
58446;SDS011;44240;51.840;7.258;2024-03-22T08:34:07;21.92;;;11.82;;
58446;SDS011;44240;51.840;7.258;2024-03-22T08:36:33;20.50;;;11.80;;
58446;SDS011;44240;51.840;7.258;2024-03-22T08:38:59;20.80;;;11.05;;
58446;SDS011;44240;51.840;7.258;2024-03-22T08:41:25;16.73;;;10.50;;
58446;SDS011;44240;51.840;7.258;2024-03-22T08:43:51;18.85;;;10.45;;
58446;SDS011;44240;51.840;7.258;2024-03-22T08:46:17;19.45;;;11.00;;
58446;SDS011;44240;51.840;7.258;2024-03-22T08:48:42;19.55;;;11.65;;
58446;SDS011;44240;51.840;7.258;2024-03-22T08:51:08;19.13;;;9.57;;
58446;SDS011;44240;51.840;7.258;2024-03-22T08:53:34;16.55;;;10.15;;
58446;SDS011;44240;51.840;7.258;2024-03-22T08:56:00;17.05;;;9.38;;
58446;SDS011;44240;51.840;7.258;2024-03-22T08:58:26;17.17;;;10.60;;
58446;SDS011;44240;51.840;7.258;2024-03-22T09:00:52;18.05;;;10.88;;
58446;SDS011;44240;51.840;7.258;2024-03-22T09:03:18;18.17;;;10.88;;
58446;SDS011;44240;51.840;7.258;2024-03-22T09:05:43;15.85;;;10.20;;
58446;SDS011;44240;51.840;7.258;2024-03-22T09:08:09;17.48;;;10.18;;
58446;SDS011;44240;51.840;7.258;2024-03-22T09:10:35;16.35;;;10.30;;
58446;SDS011;44240;51.840;7.258;2024-03-22T09:13:01;19.65;;;9.80;;
58446;SDS011;44240;51.840;7.258;2024-03-22T09:15:27;16.27;;;9.70;;
58446;SDS011;44240;51.840;7.258;2024-03-22T09:17:53;20.08;;;9.85;;
58446;SDS011;44240;51.840;7.258;2024-03-22T09:20:19;14.23;;;8.60;;
58446;SDS011;44240;51.840;7.258;2024-03-22T09:22:45;17.13;;;9.93;;
58446;SDS011;44240;51.840;7.258;2024-03-22T09:25:11;16.83;;;9.63;;
58446;SDS011;44240;51.840;7.258;2024-03-22T09:27:37;15.45;;;8.93;;
58446;SDS011;44240;51.840;7.258;2024-03-22T09:30:03;13.50;;;7.85;;
58446;SDS011;44240;51.840;7.258;2024-03-22T09:32:30;15.88;;;10.20;;
58446;SDS011;44240;51.840;7.258;2024-03-22T09:34:56;16.42;;;10.23;;
58446;SDS011;44240;51.840;7.258;2024-03-22T09:37:22;16.85;;;9.57;;
58446;SDS011;44240;51.840;7.258;2024-03-22T09:39:48;19.30;;;10.32;;
58446;SDS011;44240;51.840;7.258;2024-03-22T09:42:16;16.13;;;9.65;;
58446;SDS011;44240;51.840;7.258;2024-03-22T09:44:49;15.82;;;10.15;;
58446;SDS011;44240;51.840;7.258;2024-03-22T09:47:16;16.70;;;10.70;;
58446;SDS011;44240;51.840;7.258;2024-03-22T09:49:43;18.42;;;10.55;;
58446;SDS011;44240;51.840;7.258;2024-03-22T09:52:14;16.80;;;9.90;;
58446;SDS011;44240;51.840;7.258;2024-03-22T09:54:41;16.45;;;9.70;;
58446;SDS011;44240;51.840;7.258;2024-03-22T09:57:09;15.38;;;9.50;;
58446;SDS011;44240;51.840;7.258;2024-03-22T09:59:39;18.90;;;10.20;;
58446;SDS011;44240;51.840;7.258;2024-03-22T10:02:05;19.88;;;10.23;;
58446;SDS011;44240;51.840;7.258;2024-03-22T10:04:35;13.93;;;9.32;;
58446;SDS011;44240;51.840;7.258;2024-03-22T10:07:02;20.17;;;11.20;;
58446;SDS011;44240;51.840;7.258;2024-03-22T10:09:29;16.35;;;10.20;;
58446;SDS011;44240;51.840;7.258;2024-03-22T10:11:56;16.45;;;10.30;;
58446;SDS011;44240;51.840;7.258;2024-03-22T10:14:22;16.58;;;9.80;;
58446;SDS011;44240;51.840;7.258;2024-03-22T10:16:50;19.77;;;10.20;;
58446;SDS011;44240;51.840;7.258;2024-03-22T10:19:19;15.23;;;9.98;;
58446;SDS011;44240;51.840;7.258;2024-03-22T10:21:46;15.27;;;9.73;;
58446;SDS011;44240;51.840;7.258;2024-03-22T10:24:28;18.27;;;11.00;;
58446;SDS011;44240;51.840;7.258;2024-03-22T10:26:55;14.85;;;9.85;;
58446;SDS011;44240;51.840;7.258;2024-03-22T10:29:21;13.75;;;9.85;;
58446;SDS011;44240;51.840;7.258;2024-03-22T10:31:51;16.20;;;10.57;;
58446;SDS011;44240;51.840;7.258;2024-03-22T10:34:18;17.90;;;11.02;;
58446;SDS011;44240;51.840;7.258;2024-03-22T10:36:47;16.50;;;9.93;;
58446;SDS011;44240;51.840;7.258;2024-03-22T10:39:16;19.63;;;10.55;;
58446;SDS011;44240;51.840;7.258;2024-03-22T10:41:47;17.08;;;10.95;;
58446;SDS011;44240;51.840;7.258;2024-03-22T10:44:13;16.58;;;10.60;;
58446;SDS011;44240;51.840;7.258;2024-03-22T10:46:46;17.15;;;10.98;;
58446;SDS011;44240;51.840;7.258;2024-03-22T10:49:17;20.23;;;11.45;;
58446;SDS011;44240;51.840;7.258;2024-03-22T10:51:49;18.83;;;11.07;;
58446;SDS011;44240;51.840;7.258;2024-03-22T10:54:19;15.82;;;10.35;;
58446;SDS011;44240;51.840;7.258;2024-03-22T10:56:47;17.90;;;11.57;;
58446;SDS011;44240;51.840;7.258;2024-03-22T10:59:14;18.05;;;10.65;;
58446;SDS011;44240;51.840;7.258;2024-03-22T11:01:49;20.88;;;11.20;;
58446;SDS011;44240;51.840;7.258;2024-03-22T11:04:22;21.33;;;10.85;;
58446;SDS011;44240;51.840;7.258;2024-03-22T11:06:48;19.02;;;11.30;;
58446;SDS011;44240;51.840;7.258;2024-03-22T11:09:21;19.35;;;10.27;;
58446;SDS011;44240;51.840;7.258;2024-03-22T11:11:48;20.77;;;11.75;;
58446;SDS011;44240;51.840;7.258;2024-03-22T11:14:16;21.23;;;12.52;;
58446;SDS011;44240;51.840;7.258;2024-03-22T11:16:43;20.05;;;12.35;;
58446;SDS011;44240;51.840;7.258;2024-03-22T11:19:10;18.58;;;11.07;;
58446;SDS011;44240;51.840;7.258;2024-03-22T11:21:35;18.50;;;11.77;;
58446;SDS011;44240;51.840;7.258;2024-03-22T11:24:01;21.05;;;12.07;;
58446;SDS011;44240;51.840;7.258;2024-03-22T11:26:27;22.13;;;12.70;;
58446;SDS011;44240;51.840;7.258;2024-03-22T11:28:53;20.50;;;12.50;;
58446;SDS011;44240;51.840;7.258;2024-03-22T11:31:19;23.40;;;14.93;;
58446;SDS011;44240;51.840;7.258;2024-03-22T11:33:51;20.33;;;12.60;;
58446;SDS011;44240;51.840;7.258;2024-03-22T11:36:17;23.20;;;13.27;;
58446;SDS011;44240;51.840;7.258;2024-03-22T11:38:43;23.95;;;14.38;;
58446;SDS011;44240;51.840;7.258;2024-03-22T11:41:09;20.65;;;11.95;;
58446;SDS011;44240;51.840;7.258;2024-03-22T11:43:35;24.15;;;12.82;;
58446;SDS011;44240;51.840;7.258;2024-03-22T11:46:01;21.27;;;13.15;;
58446;SDS011;44240;51.840;7.258;2024-03-22T11:48:27;23.38;;;12.60;;
58446;SDS011;44240;51.840;7.258;2024-03-22T11:50:53;25.23;;;12.90;;
58446;SDS011;44240;51.840;7.258;2024-03-22T11:53:21;21.52;;;13.05;;
58446;SDS011;44240;51.840;7.258;2024-03-22T11:55:49;24.88;;;13.77;;
58446;SDS011;44240;51.840;7.258;2024-03-22T11:58:15;22.95;;;14.10;;
58446;SDS011;44240;51.840;7.258;2024-03-22T12:00:43;21.50;;;13.45;;
58446;SDS011;44240;51.840;7.258;2024-03-22T12:03:09;23.48;;;13.50;;
58446;SDS011;44240;51.840;7.258;2024-03-22T12:05:36;25.92;;;14.00;;
58446;SDS011;44240;51.840;7.258;2024-03-22T12:08:02;23.58;;;12.52;;
58446;SDS011;44240;51.840;7.258;2024-03-22T12:10:28;23.30;;;13.30;;
58446;SDS011;44240;51.840;7.258;2024-03-22T12:12:54;24.73;;;13.98;;
58446;SDS011;44240;51.840;7.258;2024-03-22T12:15:21;25.45;;;13.25;;
58446;SDS011;44240;51.840;7.258;2024-03-22T12:17:47;24.42;;;13.70;;
58446;SDS011;44240;51.840;7.258;2024-03-22T12:20:12;23.67;;;13.27;;
58446;SDS011;44240;51.840;7.258;2024-03-22T12:22:40;26.35;;;14.15;;
58446;SDS011;44240;51.840;7.258;2024-03-22T12:25:06;23.77;;;13.80;;
58446;SDS011;44240;51.840;7.258;2024-03-22T12:27:35;24.02;;;13.82;;
58446;SDS011;44240;51.840;7.258;2024-03-22T12:30:00;24.67;;;14.45;;
58446;SDS011;44240;51.840;7.258;2024-03-22T12:32:26;25.95;;;14.20;;
58446;SDS011;44240;51.840;7.258;2024-03-22T12:34:52;24.90;;;14.88;;
58446;SDS011;44240;51.840;7.258;2024-03-22T12:37:19;26.63;;;14.65;;
58446;SDS011;44240;51.840;7.258;2024-03-22T12:39:44;25.00;;;13.90;;
58446;SDS011;44240;51.840;7.258;2024-03-22T12:42:10;26.80;;;14.75;;
58446;SDS011;44240;51.840;7.258;2024-03-22T12:44:36;22.35;;;12.73;;
58446;SDS011;44240;51.840;7.258;2024-03-22T12:47:02;24.70;;;14.23;;
58446;SDS011;44240;51.840;7.258;2024-03-22T12:49:28;24.70;;;14.57;;
58446;SDS011;44240;51.840;7.258;2024-03-22T12:51:55;25.67;;;14.73;;
58446;SDS011;44240;51.840;7.258;2024-03-22T12:54:22;24.52;;;14.10;;
58446;SDS011;44240;51.840;7.258;2024-03-22T12:56:48;27.45;;;14.82;;
58446;SDS011;44240;51.840;7.258;2024-03-22T12:59:14;23.95;;;14.32;;
58446;SDS011;44240;51.840;7.258;2024-03-22T13:01:40;27.15;;;15.98;;
58446;SDS011;44240;51.840;7.258;2024-03-22T13:04:06;25.85;;;14.52;;
58446;SDS011;44240;51.840;7.258;2024-03-22T13:06:32;23.75;;;13.52;;
58446;SDS011;44240;51.840;7.258;2024-03-22T13:08:59;27.65;;;15.43;;
58446;SDS011;44240;51.840;7.258;2024-03-22T13:11:27;27.10;;;14.90;;
58446;SDS011;44240;51.840;7.258;2024-03-22T13:13:52;24.67;;;14.13;;
58446;SDS011;44240;51.840;7.258;2024-03-22T13:16:19;26.13;;;14.90;;
58446;SDS011;44240;51.840;7.258;2024-03-22T13:18:44;22.35;;;12.93;;
58446;SDS011;44240;51.840;7.258;2024-03-22T13:21:10;25.60;;;14.88;;
58446;SDS011;44240;51.840;7.258;2024-03-22T13:23:36;24.98;;;14.70;;
58446;SDS011;44240;51.840;7.258;2024-03-22T13:26:03;26.27;;;15.90;;
58446;SDS011;44240;51.840;7.258;2024-03-22T13:28:30;25.25;;;14.52;;
58446;SDS011;44240;51.840;7.258;2024-03-22T13:31:02;23.27;;;15.05;;
58446;SDS011;44240;51.840;7.258;2024-03-22T13:33:32;24.67;;;14.40;;
58446;SDS011;44240;51.840;7.258;2024-03-22T13:36:01;26.55;;;14.70;;
58446;SDS011;44240;51.840;7.258;2024-03-22T13:38:28;25.13;;;15.13;;
58446;SDS011;44240;51.840;7.258;2024-03-22T13:40:57;26.98;;;15.13;;
58446;SDS011;44240;51.840;7.258;2024-03-22T13:43:25;30.45;;;16.75;;
58446;SDS011;44240;51.840;7.258;2024-03-22T13:45:52;25.75;;;15.13;;
58446;SDS011;44240;51.840;7.258;2024-03-22T13:48:20;28.92;;;16.20;;
58446;SDS011;44240;51.840;7.258;2024-03-22T13:50:53;26.92;;;15.00;;
58446;SDS011;44240;51.840;7.258;2024-03-22T13:53:21;23.75;;;15.88;;
58446;SDS011;44240;51.840;7.258;2024-03-22T13:55:50;25.35;;;14.55;;
58446;SDS011;44240;51.840;7.258;2024-03-22T13:58:18;26.98;;;16.35;;
58446;SDS011;44240;51.840;7.258;2024-03-22T14:00:44;25.90;;;14.13;;
58446;SDS011;44240;51.840;7.258;2024-03-22T14:03:10;25.42;;;15.88;;
58446;SDS011;44240;51.840;7.258;2024-03-22T14:05:36;28.75;;;15.18;;
58446;SDS011;44240;51.840;7.258;2024-03-22T14:08:01;25.30;;;14.38;;
58446;SDS011;44240;51.840;7.258;2024-03-22T14:10:29;25.45;;;15.57;;
58446;SDS011;44240;51.840;7.258;2024-03-22T14:12:58;26.50;;;16.08;;
58446;SDS011;44240;51.840;7.258;2024-03-22T14:15:24;25.38;;;15.60;;
58446;SDS011;44240;51.840;7.258;2024-03-22T14:17:52;24.02;;;15.60;;
58446;SDS011;44240;51.840;7.258;2024-03-22T14:20:18;27.10;;;16.20;;
58446;SDS011;44240;51.840;7.258;2024-03-22T14:22:44;22.75;;;13.77;;